Time;durP1;ratioP1;P1;durP2;ratioP2;P2;SDS_P1;SDS_P2;PMS_P1;PMS_P2;Temp;Humidity;BMP_temperature;BMP_pressure;BME280_temperature;BME280_humidity;BME280_pressure;Samples;Min_cycle;Max_cycle;Signal;HPM_P1;HPM_P2
2022/01/06 00:02:25;;;;;;;5.87;2.07;;;1.70;99.90;;;;;;4992704;28;20189;-49
2022/01/06 00:04:50;;;;;;;4.57;2.10;;;1.60;99.90;;;;;;4992653;28;20169;-50
2022/01/06 00:07:16;;;;;;;6.00;2.33;;;1.70;99.90;;;;;;4992603;28;20176;-53
2022/01/06 00:09:42;;;;;;;5.23;2.07;;;1.70;99.90;;;;;;4992880;28;20177;-51
2022/01/06 00:12:11;;;;;;;3.70;2.00;;;1.70;99.90;;;;;;4992558;28;20698;-54
2022/01/06 00:14:53;;;;;;;5.00;2.10;;;1.70;99.90;;;;;;4992396;28;20165;-50
2022/01/06 00:25:12;;;;;;;7.20;2.33;;;1.50;99.90;;;;;;4992288;28;20185;-52
2022/01/06 00:27:38;;;;;;;3.83;2.13;;;1.50;99.90;;;;;;4992296;28;20169;-50
2022/01/06 00:30:04;;;;;;;7.47;2.50;;;1.50;99.90;;;;;;4992558;28;20173;-55
2022/01/06 00:32:30;;;;;;;6.97;2.33;;;1.60;99.90;;;;;;4974716;28;20196;-51
2022/01/06 00:34:56;;;;;;;6.20;2.67;;;1.60;99.90;;;;;;4992265;28;20223;-50
2022/01/06 00:37:21;;;;;;;6.37;2.70;;;1.50;99.90;;;;;;4992452;28;20268;-51
2022/01/06 00:39:47;;;;;;;8.00;2.80;;;1.40;99.90;;;;;;4992297;28;20275;-52
2022/01/06 00:42:13;;;;;;;5.80;2.57;;;1.30;99.90;;;;;;4992130;28;20236;-53
2022/01/06 00:44:39;;;;;;;6.67;2.53;;;1.30;99.90;;;;;;4992030;28;20192;-52
2022/01/06 00:47:04;;;;;;;5.83;2.53;;;1.30;99.90;;;;;;4992284;28;20169;-51
2022/01/06 00:49:30;;;;;;;5.07;2.43;;;1.40;99.90;;;;;;4992243;28;20172;-54
2022/01/06 00:51:56;;;;;;;5.17;2.83;;;1.40;99.90;;;;;;4992320;28;20193;-50
2022/01/06 00:54:21;;;;;;;6.90;2.60;;;1.40;99.90;;;;;;4991921;28;20181;-50
2022/01/06 00:56:47;;;;;;;7.73;3.23;;;1.40;99.90;;;;;;4992211;28;20165;-50
2022/01/06 00:59:12;;;;;;;6.90;3.03;;;1.40;99.90;;;;;;4974551;28;20678;-54
2022/01/06 01:01:38;;;;;;;6.37;3.03;;;1.50;99.90;;;;;;4974811;28;20224;-50
2022/01/06 01:04:03;;;;;;;6.23;3.07;;;1.60;99.90;;;;;;4992050;28;20165;-51
2022/01/06 01:06:29;;;;;;;5.33;2.50;;;1.60;99.90;;;;;;4992035;28;20260;-52
2022/01/06 01:08:55;;;;;;;7.13;2.57;;;1.70;99.90;;;;;;4992124;28;20552;-49
2022/01/06 01:11:20;;;;;;;5.43;2.47;;;1.80;99.90;;;;;;4991978;28;20197;-52
2022/01/06 01:13:56;;;;;;;7.57;2.70;;;1.80;99.90;;;;;;4992095;28;20180;-50
2022/01/06 01:16:31;;;;;;;6.47;2.70;;;1.70;99.90;;;;;;4986641;28;20173;-53
2022/01/06 01:18:58;;;;;;;5.03;2.53;;;1.70;99.90;;;;;;4992151;28;20669;-50
2022/01/06 01:21:28;;;;;;;6.17;2.50;;;1.80;99.90;;;;;;4991936;28;20561;-55
2022/01/06 01:23:55;;;;;;;3.80;2.17;;;1.70;99.90;;;;;;4991965;28;20519;-49
2022/01/06 01:26:21;;;;;;;5.37;2.57;;;1.70;99.90;;;;;;4991732;28;20174;-53
2022/01/06 01:28:47;;;;;;;5.77;2.60;;;1.60;99.90;;;;;;4991889;28;20170;-52
2022/01/06 01:33:44;;;;;;;5.80;2.30;;;1.70;99.90;;;;;;4992069;28;20292;-56
2022/01/06 01:36:11;;;;;;;8.43;2.63;;;1.70;99.90;;;;;;4995375;28;20177;-50
2022/01/06 01:38:37;;;;;;;4.87;2.37;;;1.90;99.90;;;;;;4995175;28;20256;-54
2022/01/06 01:41:04;;;;;;;6.20;2.40;;;2.00;99.90;;;;;;4995584;28;20209;-54
2022/01/06 01:43:31;;;;;;;6.00;2.37;;;2.00;99.90;;;;;;4995398;28;20188;-54
2022/01/06 01:45:58;;;;;;;5.73;2.53;;;2.10;99.90;;;;;;4995152;28;20166;-50
2022/01/06 01:48:34;;;;;;;5.70;2.53;;;2.20;99.90;;;;;;4990033;28;20177;-52
2022/01/06 01:51:00;;;;;;;9.13;2.67;;;2.30;99.90;;;;;;4995180;28;20219;-50
2022/01/06 01:53:25;;;;;;;5.67;2.47;;;2.50;99.90;;;;;;4995144;28;20165;-50
2022/01/06 01:55:51;;;;;;;5.07;2.50;;;2.60;99.90;;;;;;4994966;28;20169;-51
2022/01/06 01:58:18;;;;;;;4.93;2.30;;;2.60;99.90;;;;;;4995065;28;20705;-50
2022/01/06 02:00:43;;;;;;;4.83;2.50;;;2.60;99.90;;;;;;4995076;28;20244;-50
2022/01/06 02:03:09;;;;;;;4.70;2.10;;;2.50;99.90;;;;;;4995026;28;20184;-50
2022/01/06 02:05:35;;;;;;;5.10;2.23;;;2.40;99.90;;;;;;4994707;28;20173;-53
2022/01/06 02:08:01;;;;;;;6.30;2.80;;;2.50;99.90;;;;;;4994927;28;20227;-55
2022/01/06 02:10:29;;;;;;;4.73;2.27;;;2.50;99.90;;;;;;4994809;28;20184;-53
2022/01/06 02:12:56;;;;;;;4.53;2.40;;;2.30;99.90;;;;;;4994909;28;20188;-53
2022/01/06 02:15:23;;;;;;;4.17;2.23;;;2.20;99.90;;;;;;4994446;28;20251;-55
2022/01/06 02:17:48;;;;;;;2.97;2.23;;;2.20;99.90;;;;;;4994843;28;20177;-52
2022/01/06 02:20:16;;;;;;;7.73;2.53;;;2.00;99.90;;;;;;4994402;28;20592;-51
2022/01/06 02:22:43;;;;;;;7.70;2.77;;;2.00;99.90;;;;;;4994715;28;20185;-53
2022/01/06 02:25:18;;;;;;;4.50;2.10;;;2.00;99.90;;;;;;4994286;28;20176;-51
2022/01/06 02:27:47;;;;;;;4.50;2.20;;;2.10;99.90;;;;;;4994533;28;20181;-52
2022/01/06 02:30:13;;;;;;;5.30;2.43;;;2.20;99.90;;;;;;4976870;28;20177;-52
2022/01/06 02:32:39;;;;;;;3.83;2.33;;;2.30;99.90;;;;;;4994483;28;20255;-50
2022/01/06 02:35:08;;;;;;;5.00;2.60;;;2.40;99.90;;;;;;4994213;28;20256;-55
2022/01/06 02:37:33;;;;;;;5.20;2.30;;;2.50;99.90;;;;;;4994465;28;20534;-51
2022/01/06 02:39:59;;;;;;;4.13;2.30;;;2.50;99.90;;;;;;4994283;28;20204;-53
2022/01/06 02:42:26;;;;;;;4.57;2.17;;;2.50;99.90;;;;;;5018903;23;20240;-62
2022/01/06 02:44:51;;;;;;;6.10;2.50;;;2.60;99.90;;;;;;5044702;28;20176;-60
2022/01/06 02:47:17;;;;;;;5.23;2.70;;;2.50;99.90;;;;;;5030867;28;20267;-61
2022/01/06 02:49:42;;;;;;;5.50;2.57;;;2.50;99.90;;;;;;5044953;28;20175;-60
2022/01/06 02:52:08;;;;;;;5.30;2.50;;;2.50;99.90;;;;;;5036748;28;20196;-61
2022/01/06 02:54:34;;;;;;;7.63;2.30;;;2.40;99.90;;;;;;5049272;28;20175;-61
2022/01/06 02:56:59;;;;;;;4.30;2.20;;;2.40;99.90;;;;;;5053006;28;20210;-59
2022/01/06 02:59:25;;;;;;;4.57;2.37;;;2.30;99.90;;;;;;5051238;28;20211;-58
2022/01/06 03:01:50;;;;;;;7.07;2.67;;;2.40;99.90;;;;;;5044594;28;20203;-63
2022/01/06 03:04:16;;;;;;;5.93;2.60;;;2.40;99.90;;;;;;5052995;28;20207;-59
2022/01/06 03:06:41;;;;;;;3.20;2.43;;;2.30;99.90;;;;;;5053230;28;20194;-60
2022/01/06 03:09:08;;;;;;;5.17;2.30;;;2.30;99.90;;;;;;5052964;28;20626;-60
2022/01/06 03:11:33;;;;;;;5.30;2.30;;;2.30;99.90;;;;;;5052997;28;20187;-61
2022/01/06 03:14:00;;;;;;;4.10;2.60;;;2.40;99.90;;;;;;5052551;28;20189;-61
2022/01/06 03:16:26;;;;;;;5.40;2.53;;;2.50;99.90;;;;;;5051836;28;20188;-60
2022/01/06 03:18:52;;;;;;;4.67;2.60;;;2.50;99.90;;;;;;5044053;28;20202;-61
2022/01/06 03:21:18;;;;;;;8.77;2.80;;;2.40;99.90;;;;;;5053059;28;20201;-59
2022/01/06 03:23:43;;;;;;;4.90;2.17;;;2.40;99.90;;;;;;5052740;28;20178;-60
2022/01/06 03:26:09;;;;;;;5.67;2.40;;;2.30;99.90;;;;;;5052559;28;20179;-61
2022/01/06 03:28:34;;;;;;;7.87;2.63;;;2.20;99.90;;;;;;5034607;28;20171;-59
2022/01/06 03:31:00;;;;;;;7.70;2.70;;;2.00;99.90;;;;;;5052808;28;20207;-61
2022/01/06 03:33:26;;;;;;;4.33;2.40;;;2.00;99.90;;;;;;5052568;28;20794;-61
2022/01/06 03:35:51;;;;;;;4.80;2.57;;;2.10;99.90;;;;;;5052258;28;20173;-60
2022/01/06 03:38:17;;;;;;;5.27;3.13;;;2.10;99.90;;;;;;5052525;28;20640;-60
2022/01/06 03:40:42;;;;;;;6.57;2.77;;;2.00;99.90;;;;;;5052304;28;20202;-61
2022/01/06 03:43:08;;;;;;;6.20;3.10;;;2.00;99.90;;;;;;5052408;28;20205;-61
2022/01/06 03:45:34;;;;;;;5.83;3.13;;;2.00;99.90;;;;;;5051959;28;20254;-62
2022/01/06 03:48:01;;;;;;;5.33;2.80;;;1.90;99.90;;;;;;5052428;28;20168;-60
2022/01/06 03:50:26;;;;;;;8.03;3.13;;;1.90;99.90;;;;;;5045346;28;20191;-61
2022/01/06 03:52:52;;;;;;;4.33;2.50;;;1.80;99.90;;;;;;5042595;28;20681;-63
2022/01/06 03:55:19;;;;;;;5.10;2.77;;;1.70;99.90;;;;;;5051836;28;20670;-60
2022/01/06 03:57:45;;;;;;;5.53;3.10;;;1.70;99.90;;;;;;5051505;28;20175;-61
2022/01/06 04:00:17;;;;;;;8.80;3.37;;;1.70;99.90;;;;;;5052188;28;20194;-61
2022/01/06 04:02:43;;;;;;;5.83;3.13;;;1.80;99.90;;;;;;5052012;28;20215;-59
2022/01/06 04:05:10;;;;;;;8.07;3.00;;;1.80;99.90;;;;;;5051785;28;20201;-61
2022/01/06 04:07:36;;;;;;;5.63;3.20;;;1.80;99.90;;;;;;5051929;28;20201;-61
2022/01/06 04:10:04;;;;;;;6.57;3.23;;;1.90;99.90;;;;;;5052148;28;20175;-62
2022/01/06 04:12:29;;;;;;;8.87;3.50;;;1.80;99.90;;;;;;5051774;28;20199;-62
2022/01/06 04:14:55;;;;;;;7.50;3.67;;;1.70;99.90;;;;;;5051754;28;20693;-63
2022/01/06 04:17:21;;;;;;;5.83;3.27;;;1.30;99.90;;;;;;5051694;28;20602;-63
2022/01/06 04:19:46;;;;;;;8.13;3.67;;;1.60;99.90;;;;;;5051789;28;20718;-60
2022/01/06 04:22:12;;;;;;;7.43;3.73;;;1.50;99.90;;;;;;5051616;28;20194;-63
2022/01/06 04:24:37;;;;;;;4.93;2.90;;;1.50;99.90;;;;;;5051654;28;20174;-60
2022/01/06 04:27:03;;;;;;;7.80;3.23;;;1.50;99.90;;;;;;5051701;28;20241;-61
2022/01/06 04:29:29;;;;;;;6.97;3.60;;;1.40;99.90;;;;;;5051721;28;20655;-61
2022/01/06 04:31:54;;;;;;;10.77;3.90;;;1.40;99.90;;;;;;5051849;28;20598;-63
2022/01/06 04:34:20;;;;;;;6.30;3.53;;;1.50;99.90;;;;;;5051222;28;20683;-63
2022/01/06 04:36:51;;;;;;;5.13;3.50;;;1.60;99.90;;;;;;5034003;28;20182;-59
2022/01/06 04:39:17;;;;;;;6.23;3.80;;;1.60;99.90;;;;;;5033984;28;20687;-62
2022/01/06 04:41:43;;;;;;;6.80;3.63;;;1.60;99.90;;;;;;5051675;28;20769;-62
2022/01/06 04:44:08;;;;;;;7.83;3.90;;;1.50;99.90;;;;;;5033454;28;20205;-60
2022/01/06 04:46:34;;;;;;;6.57;3.60;;;1.50;99.90;;;;;;5051581;28;20175;-56
2022/01/06 04:48:59;;;;;;;6.33;3.77;;;1.50;99.90;;;;;;5051472;28;20229;-57
2022/01/06 04:51:25;;;;;;;8.47;3.90;;;1.60;99.90;;;;;;5051587;28;20175;-60
2022/01/06 04:53:50;;;;;;;9.60;4.20;;;1.50;99.90;;;;;;5051380;28;20171;-57
2022/01/06 04:56:16;;;;;;;7.57;3.80;;;1.60;99.90;;;;;;5051300;28;20240;-59
2022/01/06 04:58:42;;;;;;;6.60;3.53;;;1.60;99.90;;;;;;5045381;28;20276;-58
2022/01/06 05:01:07;;;;;;;7.23;4.00;;;1.70;99.90;;;;;;5042738;28;20184;-58
2022/01/06 05:03:33;;;;;;;7.83;4.00;;;1.70;99.90;;;;;;5051529;28;20187;-57
2022/01/06 05:05:59;;;;;;;8.60;4.00;;;1.70;99.90;;;;;;5051098;28;20171;-61
2022/01/06 05:08:26;;;;;;;10.03;3.83;;;1.70;99.90;;;;;;5052539;28;20186;-58
2022/01/06 05:10:52;;;;;;;9.00;3.87;;;1.80;99.90;;;;;;5055316;28;20250;-60
2022/01/06 05:13:17;;;;;;;8.10;3.60;;;1.80;99.90;;;;;;5055210;28;20273;-58
2022/01/06 05:15:43;;;;;;;11.30;3.30;;;1.70;99.90;;;;;;5054804;28;20183;-60
2022/01/06 05:18:08;;;;;;;4.73;3.37;;;1.80;99.90;;;;;;5055284;28;20247;-59
2022/01/06 05:20:37;;;;;;;7.27;3.87;;;1.80;99.90;;;;;;5054936;28;20618;-58
2022/01/06 05:23:03;;;;;;;6.47;3.83;;;1.60;99.90;;;;;;5055180;28;20194;-59
2022/01/06 05:25:30;;;;;;;8.97;3.60;;;1.70;99.90;;;;;;5054896;28;20254;-59
2022/01/06 05:27:56;;;;;;;6.57;3.67;;;1.70;99.90;;;;;;5054784;28;20179;-60
2022/01/06 05:30:22;;;;;;;7.00;3.83;;;1.70;99.90;;;;;;5055117;28;20214;-59
2022/01/06 05:32:48;;;;;;;5.93;4.03;;;1.70;99.90;;;;;;5054844;28;20248;-61
2022/01/06 05:35:14;;;;;;;8.37;4.07;;;1.80;99.90;;;;;;5054741;28;20171;-57
2022/01/06 05:37:39;;;;;;;8.90;4.10;;;1.80;99.90;;;;;;5054755;28;20186;-58
2022/01/06 05:40:06;;;;;;;5.77;3.70;;;1.80;99.90;;;;;;5054833;28;20195;-59
2022/01/06 05:42:31;;;;;;;9.57;4.00;;;1.80;99.90;;;;;;5054370;28;20219;-60
2022/01/06 05:44:57;;;;;;;5.50;3.60;;;1.80;99.90;;;;;;5054465;28;20163;-60
2022/01/06 05:47:23;;;;;;;5.87;3.73;;;1.90;99.90;;;;;;5054645;28;20256;-57
2022/01/06 05:49:48;;;;;;;7.73;3.77;;;2.00;99.90;;;;;;5054785;28;20175;-59
2022/01/06 05:52:14;;;;;;;5.90;3.77;;;2.00;99.90;;;;;;5054516;28;20199;-59
2022/01/06 05:54:39;;;;;;;9.57;4.00;;;1.90;99.90;;;;;;5054221;28;20175;-60
2022/01/06 05:57:06;;;;;;;9.43;4.13;;;1.80;99.90;;;;;;5054550;28;20229;-58
2022/01/06 05:59:32;;;;;;;4.90;3.90;;;1.80;99.90;;;;;;5054230;28;20680;-62
2022/01/06 06:01:58;;;;;;;7.23;4.20;;;1.70;99.90;;;;;;5054419;28;20237;-63
2022/01/06 06:04:24;;;;;;;6.13;4.20;;;1.80;99.90;;;;;;5054010;28;20179;-59
2022/01/06 06:06:50;;;;;;;10.33;4.33;;;1.80;99.90;;;;;;5036437;28;20172;-58
2022/01/06 06:09:15;;;;;;;7.27;4.30;;;1.70;99.90;;;;;;5054209;28;20238;-59
2022/01/06 06:11:41;;;;;;;9.30;4.70;;;1.70;99.90;;;;;;5054143;28;20191;-59
2022/01/06 06:14:06;;;;;;;9.13;4.80;;;1.70;99.90;;;;;;5053877;28;20209;-61
2022/01/06 06:16:32;;;;;;;9.57;4.50;;;2.00;99.90;;;;;;5054166;28;20175;-59
2022/01/06 06:18:58;;;;;;;6.73;4.57;;;;;;;;;;5053888;28;20195;-59
2022/01/06 06:21:23;;;;;;;6.63;4.50;;;1.80;99.90;;;;;;5053224;28;20206;-60
2022/01/06 06:23:50;;;;;;;12.37;5.50;;;1.60;99.90;;;;;;5053988;28;20176;-61
2022/01/06 06:26:16;;;;;;;8.37;5.00;;;1.70;99.90;;;;;;5053505;28;20548;-63
2022/01/06 06:28:41;;;;;;;7.70;4.57;;;1.70;99.90;;;;;;5054000;28;20175;-61
2022/01/06 06:31:07;;;;;;;7.83;4.83;;;1.70;99.90;;;;;;5053768;28;20633;-60
2022/01/06 06:33:32;;;;;;;8.23;5.20;;;1.70;99.90;;;;;;5053768;28;20179;-61
2022/01/06 06:35:58;;;;;;;7.10;4.40;;;1.70;99.90;;;;;;5053313;28;20175;-61
2022/01/06 06:38:24;;;;;;;6.73;4.70;;;1.70;99.90;;;;;;5053686;28;20186;-61
2022/01/06 06:40:49;;;;;;;7.87;4.73;;;1.70;99.90;;;;;;5053359;28;20199;-61
2022/01/06 06:43:15;;;;;;;7.97;4.97;;;1.80;99.90;;;;;;5053362;28;20215;-63
2022/01/06 06:45:44;;;;;;;7.67;4.80;;;1.80;99.90;;;;;;5053069;28;20647;-60
2022/01/06 06:48:10;;;;;;;6.80;4.60;;;1.90;99.90;;;;;;5053611;28;20203;-61
2022/01/06 06:50:36;;;;;;;6.40;4.70;;;1.90;99.90;;;;;;5053473;28;20179;-60
2022/01/06 06:53:07;;;;;;;7.07;4.70;;;;;;;;;;5053276;28;20240;-62
2022/01/06 06:55:32;;;;;;;7.63;5.40;;;2.00;99.90;;;;;;5053185;28;20171;-59
2022/01/06 06:57:58;;;;;;;8.50;5.00;;;1.80;99.90;;;;;;5052987;28;20167;-63
2022/01/06 07:00:24;;;;;;;9.10;5.27;;;;;;;;;;5053176;28;20587;-63
2022/01/06 07:02:49;;;;;;;9.27;4.90;;;1.80;99.90;;;;;;5053039;28;20267;-61
2022/01/06 07:05:15;;;;;;;7.93;4.80;;;1.90;99.90;;;;;;5053206;28;20330;-61
2022/01/06 07:07:42;;;;;;;10.20;5.20;;;1.90;99.90;;;;;;5045990;28;20186;-60
2022/01/06 07:10:08;;;;;;;9.80;5.20;;;1.90;99.90;;;;;;5015721;28;20211;-59
2022/01/06 07:12:38;;;;;;;9.83;4.90;;;1.90;99.90;;;;;;5033160;28;20601;-60
2022/01/06 07:15:06;;;;;;;7.90;5.33;;;1.90;99.90;;;;;;5036275;28;20203;-61
2022/01/06 07:17:31;;;;;;;6.90;4.57;;;1.90;99.90;;;;;;5043392;28;20179;-62
2022/01/06 07:19:57;;;;;;;7.40;5.00;;;1.90;99.90;;;;;;5049207;28;20195;-60
2022/01/06 07:22:22;;;;;;;11.67;5.60;;;1.80;99.90;;;;;;5050097;28;20191;-59
2022/01/06 07:24:48;;;;;;;10.17;5.60;;;1.80;99.90;;;;;;5051094;28;20186;-58
2022/01/06 07:27:13;;;;;;;7.93;4.83;;;1.80;99.90;;;;;;5051803;28;20183;-58
2022/01/06 07:29:39;;;;;;;8.37;4.90;;;1.80;99.90;;;;;;5051024;28;20179;-58
2022/01/06 07:32:05;;;;;;;8.27;4.80;;;1.80;99.90;;;;;;5051794;28;20586;-61
2022/01/06 07:34:30;;;;;;;9.73;4.80;;;1.70;99.90;;;;;;5050498;28;20175;-59
2022/01/06 07:36:56;;;;;;;6.87;4.47;;;2.40;99.90;;;;;;5033166;28;20704;-60
2022/01/06 07:39:21;;;;;;;7.73;4.37;;;1.90;99.90;;;;;;5050490;28;20264;-59
2022/01/06 07:41:47;;;;;;;7.57;5.07;;;1.90;99.90;;;;;;5033227;28;20298;-61
2022/01/06 07:44:13;;;;;;;7.43;4.80;;;2.00;99.90;;;;;;5050837;28;20181;-59
2022/01/06 07:46:40;;;;;;;8.73;4.50;;;2.10;99.90;;;;;;5051341;28;20178;-62
2022/01/06 07:49:06;;;;;;;8.17;4.70;;;2.10;99.90;;;;;;5051212;28;20185;-61
2022/01/06 07:51:31;;;;;;;6.10;4.00;;;2.10;99.90;;;;;;5051077;28;20675;-62
2022/01/06 07:53:58;;;;;;;6.37;4.20;;;2.10;99.90;;;;;;5051263;28;20183;-58
2022/01/06 07:56:24;;;;;;;6.20;4.00;;;2.20;99.90;;;;;;5051629;28;20172;-57
2022/01/06 07:58:50;;;;;;;10.67;4.53;;;2.20;99.90;;;;;;5051450;28;20186;-61
2022/01/06 08:01:16;;;;;;;7.07;4.40;;;2.30;99.90;;;;;;5051140;28;20203;-59
2022/01/06 08:03:42;;;;;;;7.87;3.90;;;2.30;99.90;;;;;;5051782;28;20175;-61
2022/01/06 08:06:08;;;;;;;6.47;4.67;;;2.30;99.90;;;;;;5051916;28;20175;-63
2022/01/06 08:08:34;;;;;;;6.00;4.17;;;2.30;99.90;;;;;;5051757;28;20179;-62
2022/01/06 08:11:00;;;;;;;7.90;4.20;;;2.30;99.90;;;;;;5052078;28;20225;-58
2022/01/06 08:13:25;;;;;;;9.00;4.43;;;2.20;99.90;;;;;;5051876;28;20568;-59
2022/01/06 08:15:51;;;;;;;7.80;4.37;;;2.10;99.90;;;;;;5051739;28;20171;-59
2022/01/06 08:18:17;;;;;;;8.33;4.30;;;2.10;99.90;;;;;;5051719;28;20167;-58
2022/01/06 08:20:42;;;;;;;6.63;4.17;;;2.10;99.90;;;;;;5051992;28;20202;-62
2022/01/06 08:23:08;;;;;;;6.87;4.00;;;2.20;99.90;;;;;;5051783;28;20248;-57
2022/01/06 08:25:35;;;;;;;6.60;3.80;;;2.20;99.90;;;;;;5051261;28;20175;-60
2022/01/06 08:28:01;;;;;;;7.33;4.00;;;2.30;99.90;;;;;;5051744;28;20175;-63
2022/01/06 08:30:27;;;;;;;6.33;3.80;;;2.30;99.90;;;;;;5051437;28;20540;-60
2022/01/06 08:32:54;;;;;;;6.43;4.37;;;2.40;99.90;;;;;;5051803;28;20193;-59
2022/01/06 08:35:23;;;;;;;4.90;3.97;;;2.30;99.90;;;;;;5051251;28;20175;-59
2022/01/06 08:37:49;;;;;;;6.50;4.30;;;2.30;99.90;;;;;;5036858;28;20184;-59
2022/01/06 08:40:14;;;;;;;6.33;4.00;;;2.30;99.90;;;;;;5021963;28;20207;-59
2022/01/06 08:42:40;;;;;;;5.97;4.13;;;2.20;99.90;;;;;;5022617;28;20679;-61
2022/01/06 08:45:07;;;;;;;5.90;4.00;;;2.20;99.90;;;;;;5021403;28;20187;-61
2022/01/06 08:47:33;;;;;;;7.70;4.37;;;2.20;99.90;;;;;;5022846;28;20183;-62
2022/01/06 08:49:58;;;;;;;7.00;4.07;;;2.30;99.90;;;;;;5028428;28;20183;-61
2022/01/06 08:52:24;;;;;;;5.53;4.30;;;2.40;99.90;;;;;;5019658;28;20242;-61
2022/01/06 08:54:50;;;;;;;8.67;4.43;;;2.50;99.90;;;;;;5054972;23;20254;-45
2022/01/06 08:57:16;;;;;;;5.93;4.50;;;2.50;99.90;;;;;;5034423;28;20318;-46
2022/01/06 08:59:41;;;;;;;7.73;4.20;;;2.60;99.90;;;;;;5044512;28;20203;-48
2022/01/06 09:02:08;;;;;;;5.87;4.20;;;2.70;99.90;;;;;;5037886;28;20202;-49
2022/01/06 09:04:33;;;;;;;7.57;3.90;;;2.70;99.90;;;;;;5046616;28;20191;-48
2022/01/06 09:06:59;;;;;;;6.50;4.17;;;2.60;99.90;;;;;;5031273;28;20793;-46
2022/01/06 09:09:25;;;;;;;7.13;4.20;;;2.60;99.90;;;;;;5030749;28;20178;-46
2022/01/06 09:11:51;;;;;;;6.70;4.67;;;2.60;99.90;;;;;;5025130;28;20180;-48
2022/01/06 09:14:17;;;;;;;7.27;4.67;;;2.60;99.90;;;;;;5019617;28;20203;-48
2022/01/06 09:16:43;;;;;;;6.10;4.47;;;2.80;99.90;;;;;;5022831;28;20172;-49
2022/01/06 09:19:09;;;;;;;7.40;4.70;;;2.80;99.90;;;;;;5025638;28;20195;-46
2022/01/06 09:21:35;;;;;;;5.40;4.10;;;2.60;99.90;;;;;;5030285;28;20179;-51
2022/01/06 09:24:04;;;;;;;8.70;5.23;;;2.60;99.90;;;;;;5023378;28;20282;-47
2022/01/06 09:26:30;;;;;;;6.43;4.30;;;2.60;99.90;;;;;;5012211;28;20176;-48
2022/01/06 09:28:55;;;;;;;8.53;5.17;;;2.50;99.90;;;;;;5028916;28;20273;-51
2022/01/06 09:31:21;;;;;;;7.10;4.77;;;2.50;99.90;;;;;;5029886;28;20227;-50
2022/01/06 09:33:46;;;;;;;6.80;4.40;;;2.50;99.90;;;;;;5031177;28;20200;-49
2022/01/06 09:36:12;;;;;;;7.10;4.47;;;2.60;99.90;;;;;;5030835;28;20646;-49
2022/01/06 09:38:38;;;;;;;5.80;4.67;;;2.70;99.90;;;;;;5031065;28;20552;-47
2022/01/06 09:41:05;;;;;;;6.67;5.10;;;2.70;99.90;;;;;;5030989;28;20651;-50
2022/01/06 09:43:32;;;;;;;6.87;4.80;;;2.60;99.90;;;;;;5031127;28;20175;-46
2022/01/06 09:46:02;;;;;;;9.30;5.10;;;2.60;99.90;;;;;;5030692;28;20168;-49
2022/01/06 09:48:29;;;;;;;7.03;5.00;;;2.70;99.90;;;;;;5031283;28;20187;-49
2022/01/06 09:50:56;;;;;;;5.90;4.57;;;2.70;99.90;;;;;;5030926;28;20185;-49
2022/01/06 09:53:23;;;;;;;8.17;4.80;;;2.80;99.90;;;;;;5031022;28;20172;-47
2022/01/06 09:55:48;;;;;;;9.00;4.97;;;2.80;99.90;;;;;;5032060;28;20627;-48
2022/01/06 09:58:23;;;;;;;8.43;4.80;;;2.70;99.90;;;;;;5034557;28;20215;-50
2022/01/06 10:00:49;;;;;;;6.40;4.30;;;2.60;99.90;;;;;;5034682;28;20242;-50
2022/01/06 10:03:15;;;;;;;7.97;4.43;;;2.70;99.90;;;;;;5033581;28;20219;-49
2022/01/06 10:05:51;;;;;;;6.10;4.50;;;2.80;99.90;;;;;;5034052;28;20194;-48
2022/01/06 10:08:27;;;;;;;7.00;4.63;;;2.80;99.90;;;;;;5034117;28;20182;-46
2022/01/06 10:11:14;;;;;;;5.70;3.90;;;3.00;99.90;;;;;;5034524;28;20194;-52
2022/01/06 10:13:42;;;;;;;9.17;5.00;;;3.00;99.90;;;;;;5034011;28;20187;-46
2022/01/06 10:16:16;;;;;;;6.73;4.80;;;3.10;99.90;;;;;;5034080;28;20191;-46
2022/01/06 10:18:53;;;;;;;8.93;5.00;;;3.10;99.90;;;;;;5033854;28;20180;-46
2022/01/06 10:21:18;;;;;;;6.27;4.47;;;3.00;99.90;;;;;;5034282;28;20533;-48
2022/01/06 10:23:45;;;;;;;5.00;3.70;;;3.00;99.90;;;;;;5033835;28;20199;-52
2022/01/06 10:26:13;;;;;;;4.93;3.60;;;3.00;99.90;;;;;;5033918;28;20168;-46
2022/01/06 10:28:39;;;;;;;5.30;3.93;;;2.90;99.90;;;;;;5033827;28;20199;-47
2022/01/06 10:31:07;;;;;;;8.83;4.10;;;3.00;99.90;;;;;;5034131;28;20675;-53
2022/01/06 10:33:39;;;;;;;7.47;4.27;;;3.10;99.90;;;;;;5033674;28;20223;-47
2022/01/06 10:36:08;;;;;;;5.47;3.33;;;3.20;99.90;;;;;;5033897;28;20548;-48
2022/01/06 10:38:35;;;;;;;6.97;3.47;;;3.30;99.90;;;;;;5033744;28;20219;-52
2022/01/06 10:41:16;;;;;;;6.77;3.73;;;3.30;99.90;;;;;;5033704;28;20230;-52
2022/01/06 10:43:51;;;;;;;6.13;3.60;;;3.20;99.90;;;;;;5033561;28;20191;-54
2022/01/06 10:46:31;;;;;;;6.87;4.10;;;3.20;99.90;;;;;;5033669;28;20210;-53
2022/01/06 10:48:59;;;;;;;4.67;3.33;;;3.20;99.90;;;;;;5033556;28;20180;-51
2022/01/06 10:51:32;;;;;;;5.83;3.53;;;3.30;99.90;;;;;;5033722;28;20200;-47
2022/01/06 10:53:58;;;;;;;5.47;3.40;;;3.30;99.90;;;;;;5033086;28;20218;-47
2022/01/06 10:56:24;;;;;;;9.20;3.80;;;3.30;99.90;;;;;;5033256;28;20176;-47
2022/01/06 10:58:50;;;;;;;5.70;3.87;;;3.30;99.90;;;;;;5033329;28;20202;-46
2022/01/06 11:01:17;;;;;;;5.53;3.83;;;3.20;99.90;;;;;;5033346;28;20180;-46
2022/01/06 11:03:42;;;;;;;6.73;3.77;;;3.20;99.90;;;;;;5033327;28;20564;-53
2022/01/06 11:06:10;;;;;;;5.80;4.27;;;3.20;99.90;;;;;;5032600;28;20171;-54
2022/01/06 11:08:39;;;;;;;5.80;3.97;;;3.30;99.90;;;;;;5033312;28;20170;-49
2022/01/06 11:13:37;;;;;;;4.43;3.57;;;3.30;99.90;;;;;;5033169;28;20258;-48
2022/01/06 11:16:03;;;;;;;5.87;3.90;;;3.40;99.90;;;;;;5032740;28;20180;-49
2022/01/06 11:18:29;;;;;;;7.63;4.03;;;3.50;99.90;;;;;;5032976;28;20247;-46
2022/01/06 11:21:09;;;;;;;5.17;3.77;;;3.50;99.90;;;;;;5032924;28;20195;-54
2022/01/06 11:23:35;;;;;;;6.97;4.03;;;3.50;99.90;;;;;;5032992;28;20188;-52
2022/01/06 11:26:17;;;;;;;8.67;3.93;;;3.40;99.90;;;;;;5032636;28;20191;-51
2022/01/06 11:28:53;;;;;;;7.53;3.63;;;3.20;99.90;;;;;;5032858;28;20171;-48
2022/01/06 11:31:23;;;;;;;6.67;2.90;;;3.30;99.90;;;;;;5032990;28;20172;-50
2022/01/06 11:33:51;;;;;;;4.53;2.70;;;4.50;99.90;;;;;;5032380;28;20234;-49
2022/01/06 11:36:33;;;;;;;4.53;2.57;;;6.30;99.90;;;;;;5032570;28;20229;-49
2022/01/06 11:39:03;;;;;;;6.03;2.43;;;8.00;99.90;;;;;;5032520;28;20683;-54
2022/01/06 11:41:33;;;;;;;4.20;2.50;;;9.50;99.90;;;;;;5032658;28;20168;-48
2022/01/06 11:44:01;;;;;;;4.73;2.70;;;11.00;99.90;;;;;;5032191;28;20198;-54
2022/01/06 11:46:39;;;;;;;4.07;2.40;;;11.20;99.90;;;;;;5032527;28;20170;-55
2022/01/06 11:49:05;;;;;;;3.40;2.33;;;11.50;99.90;;;;;;5032321;28;20163;-51
2022/01/06 11:51:32;;;;;;;4.13;2.70;;;10.00;99.90;;;;;;5032551;28;20589;-55
2022/01/06 11:54:10;;;;;;;5.67;2.40;;;9.40;99.90;;;;;;5031912;28;20208;-50
2022/01/06 11:56:47;;;;;;;4.70;2.40;;;9.90;99.90;;;;;;5032289;28;20222;-55
2022/01/06 11:59:12;;;;;;;4.93;2.63;;;10.90;99.90;;;;;;5032206;28;20534;-53
2022/01/06 12:01:50;;;;;;;3.70;2.33;;;10.40;99.90;;;;;;5032380;28;20190;-52
2022/01/06 12:04:22;;;;;;;3.27;2.20;;;9.30;99.90;;;;;;5031715;28;20200;-53
2022/01/06 12:06:49;;;;;;;3.63;2.50;;;9.00;99.90;;;;;;5032044;28;20204;-54
2022/01/06 12:09:24;;;;;;;4.97;2.80;;;8.50;99.90;;;;;;5031997;28;20688;-54
2022/01/06 12:12:19;;;;;;;5.07;2.83;;;7.80;99.90;;;;;;5032098;28;20259;-53
2022/01/06 12:14:44;;;;;;;4.10;2.40;;;6.50;99.90;;;;;;4932046;29;20247;-55
2022/01/06 12:17:11;;;;;;;6.43;2.80;;;5.80;99.90;;;;;;4932520;29;20544;-52
2022/01/06 12:19:37;;;;;;;5.30;3.07;;;5.40;99.90;;;;;;4915901;29;20223;-55
2022/01/06 12:22:09;;;;;;;5.27;2.83;;;5.10;99.90;;;;;;4932606;29;20514;-52
2022/01/06 12:24:34;;;;;;;6.60;3.10;;;4.90;99.90;;;;;;4932332;29;20207;-51
2022/01/06 12:27:04;;;;;;;6.30;3.00;;;5.00;99.90;;;;;;4932354;29;20182;-52
2022/01/06 12:29:34;;;;;;;5.17;3.10;;;5.10;99.90;;;;;;4932440;29;20174;-54
2022/01/06 12:32:11;;;;;;;6.80;2.57;;;5.30;99.90;;;;;;4932255;29;20183;-55
2022/01/06 12:34:37;;;;;;;6.43;3.03;;;5.40;99.90;;;;;;4932208;29;20568;-53
2022/01/06 12:37:03;;;;;;;5.03;2.93;;;5.40;99.90;;;;;;4932055;29;20219;-52
2022/01/06 12:39:29;;;;;;;5.07;2.80;;;5.50;99.90;;;;;;4932550;29;20210;-47
2022/01/06 12:41:54;;;;;;;4.37;2.43;;;5.50;99.90;;;;;;4932284;29;20179;-52
2022/01/06 12:44:23;;;;;;;6.77;3.13;;;5.50;99.90;;;;;;4932039;29;20278;-48
2022/01/06 12:46:50;;;;;;;7.37;3.03;;;5.60;99.90;;;;;;4931915;29;20175;-48
2022/01/06 12:49:16;;;;;;;4.27;3.13;;;5.60;99.90;;;;;;4932348;29;20543;-48
2022/01/06 12:51:45;;;;;;;5.87;2.80;;;5.50;99.90;;;;;;5005730;28;20604;-46
2022/01/06 12:54:17;;;;;;;6.30;2.60;;;5.50;99.90;;;;;;5031172;28;20672;-48
2022/01/06 12:56:53;;;;;;;6.27;3.30;;;5.50;99.90;;;;;;5031695;28;20222;-47
2022/01/06 12:59:29;;;;;;;5.43;3.20;;;5.50;99.90;;;;;;5031171;28;20203;-49
2022/01/06 13:01:59;;;;;;;9.00;3.40;;;5.30;99.90;;;;;;5031411;28;20191;-47
2022/01/06 13:04:31;;;;;;;6.70;3.23;;;5.10;99.90;;;;;;5030881;28;20180;-51
2022/01/06 13:07:00;;;;;;;4.53;2.77;;;4.80;99.90;;;;;;5031433;28;20236;-49
2022/01/06 13:09:30;;;;;;;4.90;2.73;;;4.70;99.90;;;;;;5031283;28;20183;-47
2022/01/06 13:11:58;;;;;;;5.97;2.67;;;4.40;99.90;;;;;;5031410;28;20168;-46